Quick Links (Output Below):   Max & Min Temps   /   Climate Reports   /   Zone Forecasts
River Forecasts   /   Forestry Forecasts   /   Aviation Forecasts   /   Radars   /   Features

Terminal Aerodrome Forecast (Harrison)

Pick a Site:
Arkadelphia | El Dorado | Fayetteville | Fort Smith | Harrison | Highfill | Hot Springs | Jonesboro
Little Rock | Monticello | Mountain Home | Pine Bluff | Texarkana
 Forecast 

KHRO 281959Z 2820/2918 18008G16KT P6SM SCT050
     FM290100 VRB03KT P6SM SKC
     FM290800 VRB04KT 4SM BR BKN025
     FM291500 26005KT P6SM BKN040=


 Latest METARs (Observations) 
How to Decode METARs
20Z KHRO 281953Z AUTO 18010G15KT 10SM FEW060 28/19 A2998 RMK AO2
         SLP139 T02830194
         
19Z KHRO 281853Z AUTO 13006KT 10SM CLR 28/19 A2998 RMK AO2 SLP140
         T02780189
         
18Z KHRO 281753Z AUTO 21007KT 10SM CLR 27/18 A2998 RMK AO2 SLP140
         T02670183 10267 20167 51012
         
17Z KHRO 281653Z AUTO 00000KT 10SM CLR 26/18 A2998 RMK AO2 SLP139
         T02610178
         
16Z KHRO 281553Z AUTO 27004KT 10SM CLR 25/18 A2997 RMK AO2 SLP134
         T02500178
         
15Z KHRO 281453Z AUTO 18005KT 10SM CLR 23/17 A2995 RMK AO2 SLP129
         T02280172 53017
         
14Z KHRO 281353Z AUTO 16006KT 10SM CLR 21/17 A2993 RMK AO2 SLP124
         T02060167
         
13Z KHRO 281253Z AUTO 12005KT 10SM CLR 18/16 A2991 RMK AO2 SLP116
         T01780161
         
12Z KHRO 281153Z AUTO 12006KT 10SM CLR 17/16 A2990 RMK AO2 SLP113
         70001 T01670156 10183 20156 53012
         
11Z KHRO 281053Z AUTO 13006KT 10SM CLR 16/15 A2988 RMK AO2 SLP106
         T01610150
         
***** Today's Observations (Above) *****


Back to Main Page
http://www.srh.noaa.gov/lzk/qfcst.php

USA.gov is the U.S. government's official web portal to all federal, state and local government web resources and services.